Welkenraedt, Belgium
Current Conditions -  °F | °C
As of 12:25 PM on Saturday 20 Dec 2014 (Local Time) from EBLB Reporting Station
Broken Clouds Broken Clouds  
Wind Chill: 27°   Ceiling: 1800
Heat Index: 37°   Visibility: 6mi
Dew Point: 34°   Wind: 20mph
Humidity: 87%   Direction: 270°W
Pressure: 30.12"   Gusts: NA
Location:  50.66°N, 5.97°E
Report Text: EBLB 201125Z AUTO 27017KT 9999 FEW011/// SCT015/// BKN018/// 03/01 Q1020 WHT
Loading
Personal Weather Stations






























Interactive Weather Map New forecast layout! Learn more

10-Day Weather Forecast

Advertisements
Track Severe Weather on mobile